Chris Hadfield Airport
CYZR : now visible

Airfield :











YOU CAN JOIN US ON...

 
LOGIN :

Register | Disclaimer

   EN    FR    IT 

 









Legend :    VFR   Marginal VFR   IFR   Intensive IFR   Very Intensive IFR
Visi :
Ceiling :
>= 8 km
>= 3000ft
5 to 8 km
1000 to 3000 ft
1500m to 5 km
500 to 1000 ft
800 to 1500m
200 to 500 ft
< 800m
< 200 ft
Symbols :   Thunderstorms  Fog  Heavy snow  Heavy precipitations  Wind > 20 kt






- Airport Elevation : 594 ft
- IATA code : YZR


CYZR - Chris Hadfield

CURRENT METAR :
  • 072000Z AUTO 02006KT 340V050 9SM CLR 25/12 A3016 RMK SLP213 DENSITY ALT 1500FT

EXPIRED METARs :
  • 071900Z AUTO 03006KT 350V050 9SM CLR 25/14 A3017 RMK SLP216 DENSITY ALT 1500FT
  • 071800Z AUTO 01009KT 350V060 9SM CLR 24/13 A3018 RMK SLP219 DENSITY ALT 1500FT

TAF TAF CYZR
Valid from the 07 at 20:00 until the 08 at 02:00 UTC


071938Z 0720/0802 02008KT P6SM SKC
BECMG 0800/0802 VRB03KT RMK FCST BASED ON AUTO OBS. NXT FCST WILL BE ISSUED AT 080745Z
CZYZ FIR / North America



MET'MAP, your aeronautical weather chart ! - Copyright ORBIFLY December 2007 - Disclaimer

ORBIFLY MET'MAP TEAM :

Programming & Development : Alexandra Zaïnal
Concept & original design : Baudouin d'Aumeries
Assistance for programming : Marc-Olivier Méhu
Technical & hardware support : Manuel Goepfert

Contact : metmap@orbifly.com




SOURCES & CREDITS :

   NOAA       Earth
Advisory